Hopewell Township, New Jersey
Current Conditions -  °F | °C
As of 10:53 PM on Sunday 23 Nov 2014 (Local Time) from KTTN Reporting Station
Overcast Overcast  
Wind Chill:   Ceiling: 4800
Heat Index:   Visibility: 9mi
Dew Point:   Wind: 6mph
Humidity: 80%   Direction: 90°E
Pressure: 29.98"   Gusts: NA
Location:  40.3975°N, 74.7746°W
Report Text: KTTN 240353Z AUTO 09005KT 9SM BKN048 BKN070 OVC100 09/06 A2998 RMK AO2 PRESFR SLP145 T00940061
Loading
Personal Weather Stations






























Interactive Weather Map New forecast layout! Learn more

10-Day Weather Forecast

Advertisements
Track Severe Weather on mobile